createdAt,value
2022-10-07T00:01:47.919Z,15.93
2022-10-07T00:07:19.635Z,15.90
2022-10-07T00:12:51.134Z,15.89
2022-10-07T00:18:24.964Z,15.88
2022-10-07T00:23:56.799Z,15.86
2022-10-07T00:29:28.525Z,15.85
2022-10-07T00:35:00.276Z,15.85
2022-10-07T00:40:31.857Z,15.79
2022-10-07T00:46:03.702Z,15.76
2022-10-07T00:51:35.140Z,15.74
2022-10-07T00:57:06.598Z,15.71
2022-10-07T01:02:38.583Z,15.69
2022-10-07T01:08:10.096Z,15.69
2022-10-07T01:13:41.841Z,15.67
2022-10-07T01:19:13.362Z,15.67
2022-10-07T01:24:45.051Z,15.64
2022-10-07T01:30:16.840Z,15.64
2022-10-07T01:35:49.643Z,15.61
2022-10-07T01:41:21.520Z,15.57
2022-10-07T01:46:53.302Z,15.57
2022-10-07T01:52:25.247Z,15.57
2022-10-07T01:57:56.914Z,15.60
2022-10-07T02:03:28.768Z,15.57
2022-10-07T02:09:00.349Z,15.56
2022-10-07T02:14:32.177Z,15.53
2022-10-07T02:20:03.815Z,15.50
2022-10-07T02:25:35.913Z,15.48
2022-10-07T02:31:07.560Z,15.48
2022-10-07T02:36:39.361Z,15.48
2022-10-07T02:42:11.189Z,15.43
2022-10-07T02:47:43.175Z,15.39
2022-10-07T02:53:14.492Z,15.36
2022-10-07T02:58:46.377Z,15.30
2022-10-07T03:04:18.142Z,15.29
2022-10-07T03:09:50.056Z,15.29
2022-10-07T03:15:21.920Z,15.24
2022-10-07T03:20:53.742Z,15.23
2022-10-07T03:26:25.554Z,15.19
2022-10-07T03:34:19.239Z,15.03
2022-10-07T03:39:52.178Z,14.99
2022-10-07T03:45:24.045Z,14.86
2022-10-07T03:50:55.924Z,14.79
2022-10-07T03:56:29.610Z,14.71
2022-10-07T04:02:01.438Z,14.58
2022-10-07T04:07:33.026Z,14.51
2022-10-07T04:18:38.117Z,14.33
2022-10-07T04:24:09.990Z,14.20
2022-10-07T04:29:41.721Z,14.15
2022-10-07T04:35:13.093Z,14.02
2022-10-07T04:40:44.441Z,13.96
2022-10-07T04:46:16.263Z,13.84
2022-10-07T04:51:47.889Z,13.80
2022-10-07T04:57:19.606Z,13.67
2022-10-07T05:02:50.986Z,13.60
2022-10-07T05:08:22.976Z,13.48
2022-10-07T05:13:54.668Z,13.43
2022-10-07T05:19:26.252Z,13.29
2022-10-07T05:24:57.881Z,13.26
2022-10-07T05:30:29.797Z,13.19
2022-10-07T05:36:01.350Z,13.18
2022-10-07T05:41:36.101Z,13.18
2022-10-07T05:47:04.854Z,13.19
2022-10-07T05:52:36.574Z,13.29
2022-10-07T05:58:07.926Z,13.31
2022-10-07T06:03:39.699Z,13.48
2022-10-07T06:09:11.301Z,13.58
2022-10-07T06:14:42.606Z,13.88
2022-10-07T06:20:13.932Z,14.02
2022-10-07T06:25:48.797Z,14.30
2022-10-07T06:31:20.446Z,14.47
2022-10-07T06:36:52.189Z,14.79
2022-10-07T06:42:23.549Z,14.98
2022-10-07T06:47:55.272Z,15.23
2022-10-07T06:53:26.938Z,15.36
2022-10-07T06:58:58.349Z,15.61
2022-10-07T07:04:29.674Z,15.76
2022-10-07T07:10:01.086Z,16.05
2022-10-07T07:15:32.886Z,16.23
2022-10-07T07:21:04.945Z,16.44
2022-10-07T07:26:36.408Z,16.82
2022-10-07T07:32:08.619Z,16.96
2022-10-07T07:40:00.478Z,17.38
2022-10-07T07:45:31.454Z,17.51
2022-10-07T07:51:02.892Z,17.64
2022-10-07T07:56:34.680Z,17.75
2022-10-07T08:02:06.724Z,17.93
2022-10-07T08:07:38.463Z,17.96
2022-10-07T08:13:10.210Z,18.12
2022-10-07T08:18:41.716Z,18.20
2022-10-07T08:24:12.832Z,18.44
2022-10-07T08:29:44.343Z,18.57
2022-10-07T08:35:16.410Z,18.69
2022-10-07T08:40:48.842Z,18.89
2022-10-07T08:46:20.308Z,18.97
2022-10-07T08:51:52.035Z,19.14
2022-10-07T08:57:23.474Z,19.24
2022-10-07T09:02:55.310Z,19.48
2022-10-07T09:08:26.687Z,19.65
2022-10-07T09:13:58.220Z,20.05
2022-10-07T09:19:29.671Z,20.24
2022-10-07T09:25:01.151Z,20.45
2022-10-07T09:36:02.439Z,20.89
2022-10-07T09:41:34.174Z,20.93
2022-10-07T09:52:35.667Z,21.05
2022-10-07T10:03:36.962Z,21.41
2022-10-07T10:09:08.620Z,21.78
2022-10-07T10:14:40.467Z,21.86
2022-10-07T10:20:12.225Z,22.05
2022-10-07T10:28:03.797Z,21.89
2022-10-07T10:33:34.636Z,21.97
2022-10-07T10:39:05.999Z,22.16
2022-10-07T10:44:37.858Z,22.16
2022-10-07T10:50:09.644Z,22.05
2022-10-07T11:01:12.827Z,22.20
2022-10-07T11:06:44.766Z,22.24
2022-10-07T11:12:16.471Z,22.16
2022-10-07T11:17:48.206Z,22.06
2022-10-07T11:23:19.594Z,21.82
2022-10-07T11:28:52.774Z,21.70
2022-10-07T11:34:24.142Z,21.76
2022-10-07T11:39:55.652Z,21.82
2022-10-07T11:45:27.502Z,21.80
2022-10-07T11:50:59.344Z,21.76
2022-10-07T11:56:31.153Z,21.66
2022-10-07T12:02:03.021Z,21.68
2022-10-07T12:13:04.699Z,21.61
2022-10-07T12:18:36.518Z,21.65
2022-10-07T12:24:08.353Z,21.62
2022-10-07T12:29:40.125Z,21.79
2022-10-07T12:35:11.957Z,21.86
2022-10-07T12:40:44.160Z,21.88
2022-10-07T12:46:16.254Z,21.89
2022-10-07T12:51:47.699Z,21.85
2022-10-07T13:02:49.573Z,21.68
2022-10-07T13:10:40.607Z,21.65
2022-10-07T13:16:12.042Z,21.91
2022-10-07T13:21:43.721Z,22.40
2022-10-07T13:27:15.723Z,22.59
2022-10-07T13:32:47.503Z,22.71
2022-10-07T13:38:19.103Z,22.54
2022-10-07T13:43:51.108Z,22.20
2022-10-07T13:49:22.724Z,22.02
2022-10-07T13:54:54.327Z,21.73
2022-10-07T14:00:26.285Z,21.61
2022-10-07T14:16:57.047Z,20.82
2022-10-07T14:22:28.629Z,20.68
2022-10-07T14:28:00.446Z,20.67
2022-10-07T14:33:31.991Z,20.74
2022-10-07T14:41:23.742Z,0.00
2022-10-07T14:46:55.534Z,20.67
2022-10-07T14:52:27.184Z,20.58
2022-10-07T15:03:28.605Z,20.20
2022-10-07T15:09:00.588Z,19.97
2022-10-07T15:14:32.063Z,19.87
2022-10-07T15:20:03.686Z,19.75
2022-10-07T15:25:35.462Z,19.70
2022-10-07T15:31:07.152Z,19.54
2022-10-07T15:36:38.803Z,19.42
2022-10-07T15:42:12.382Z,19.23
2022-10-07T15:52:27.188Z,19.00
2022-10-07T16:19:56.544Z,18.33
2022-10-07T16:38:51.800Z,17.72
2022-10-07T16:44:23.595Z,17.51
2022-10-07T16:52:17.330Z,17.29
2022-10-07T17:03:18.501Z,16.96
2022-10-07T17:08:50.480Z,16.89
2022-10-07T17:14:22.313Z,16.74
2022-10-07T17:19:54.073Z,16.64
2022-10-07T17:27:48.144Z,0.00
2022-10-07T17:33:19.779Z,16.33
2022-10-07T17:38:51.751Z,16.27
2022-10-07T17:52:14.346Z,15.96
2022-10-07T17:57:46.002Z,15.89
2022-10-07T18:19:45.958Z,15.39
2022-10-07T18:30:46.803Z,15.19
2022-10-07T18:36:18.135Z,15.07
2022-10-07T18:41:49.423Z,15.00
2022-10-07T18:47:20.906Z,14.89
2022-10-07T18:52:52.750Z,14.88
2022-10-07T18:58:24.438Z,14.76
2022-10-07T19:03:55.995Z,14.70
2022-10-07T19:09:27.452Z,14.64
2022-10-07T19:14:59.058Z,14.56
2022-10-07T19:20:30.953Z,14.44
2022-10-07T19:26:02.863Z,14.37
2022-10-07T19:31:34.772Z,14.30
2022-10-07T19:37:06.376Z,14.24
2022-10-07T19:44:59.961Z,0.00
2022-10-07T19:50:31.275Z,14.08
2022-10-07T19:56:02.762Z,14.03
2022-10-07T20:01:34.446Z,13.93
2022-10-07T20:12:35.322Z,13.85
2022-10-07T20:18:07.197Z,13.82
2022-10-07T20:23:39.001Z,13.80
2022-10-07T20:29:10.777Z,13.77
2022-10-07T20:40:12.068Z,13.77
2022-10-07T20:45:43.870Z,13.71
2022-10-07T20:51:15.633Z,13.71
2022-10-07T20:56:47.616Z,13.67
2022-10-07T21:02:19.714Z,13.62
2022-10-07T21:07:54.665Z,13.55
2022-10-07T21:13:23.379Z,13.51
2022-10-07T21:18:55.319Z,13.48
2022-10-07T21:24:26.902Z,13.43
2022-10-07T21:29:58.603Z,13.38
2022-10-07T21:35:30.186Z,13.33
2022-10-07T21:41:01.828Z,13.31
2022-10-07T21:46:33.763Z,13.27
2022-10-07T21:52:05.314Z,13.26
2022-10-07T22:03:05.978Z,13.22
2022-10-07T22:08:37.522Z,13.12
2022-10-07T22:14:12.536Z,13.08
2022-10-07T22:19:41.152Z,13.01
2022-10-07T22:25:12.821Z,12.95
2022-10-07T22:30:44.662Z,12.86
2022-10-07T22:36:16.394Z,12.82
2022-10-07T22:41:48.177Z,12.72
2022-10-07T22:47:19.911Z,12.67
2022-10-07T22:58:20.868Z,12.57
2022-10-07T23:03:52.919Z,12.56
2022-10-07T23:09:24.637Z,12.54
2022-10-07T23:14:56.318Z,12.53
2022-10-07T23:20:28.023Z,12.51
2022-10-07T23:25:59.428Z,12.51
2022-10-07T23:31:31.245Z,12.47
2022-10-07T23:37:03.003Z,12.43
2022-10-07T23:42:34.736Z,12.43
2022-10-07T23:48:06.473Z,12.39
2022-10-07T23:53:38.117Z,12.36
2022-10-07T23:59:09.855Z,12.32
